Time;durP1;ratioP1;P1;durP2;ratioP2;P2;SDS_P1;SDS_P2;PMS_P1;PMS_P2;Temp;Humidity;BMP_temperature;BMP_pressure;BME280_temperature;BME280_humidity;BME280_pressure;Samples;Min_cycle;Max_cycle;Signal;HPM_P1;HPM_P2
2022/05/09 00:02:01;;;;;;;11.80;3.20;;;;;;;13.34;42.41;101169.47;124839;1099;102485;-77
2022/05/09 00:04:33;;;;;;;10.08;3.10;;;;;;;13.27;42.39;101165.66;124816;1099;104298;-77
2022/05/09 00:07:04;;;;;;;9.63;3.20;;;;;;;13.26;42.95;101162.98;124787;1098;104169;-77
2022/05/09 00:09:38;;;;;;;7.60;3.03;;;;;;;13.24;42.77;101159.40;124767;1099;104419;-77
2022/05/09 00:12:14;;;;;;;10.90;2.83;;;;;;;13.24;42.88;101162.03;124892;1098;104698;-77
2022/05/09 00:14:46;;;;;;;9.80;3.17;;;;;;;13.25;43.02;101166.48;124801;1099;104278;-77
2022/05/09 00:17:19;;;;;;;10.10;3.30;;;;;;;13.23;42.84;101155.87;124769;1099;104249;-77
2022/05/09 00:19:51;;;;;;;8.30;2.80;;;;;;;13.21;42.81;101168.08;124843;1099;104175;-77
2022/05/09 00:22:25;;;;;;;11.20;2.87;;;;;;;13.20;43.16;101162.76;124696;1099;102069;-77
2022/05/09 00:25:03;;;;;;;6.40;2.83;;;;;;;13.21;42.78;101161.92;124863;1099;104166;-77
2022/05/09 00:27:35;;;;;;;11.47;2.83;;;;;;;13.19;42.96;101153.08;125602;1099;102265;-78
2022/05/09 00:30:09;;;;;;;8.43;2.73;;;;;;;13.19;43.52;101151.33;124864;1099;104258;-76
2022/05/09 00:32:39;;;;;;;;;;;;;;;13.16;42.96;101156.49;124850;1099;104240;-77
2022/05/09 00:35:13;;;;;;;5.33;2.53;;;;;;;13.15;43.32;101151.17;124768;1099;104218;-77
2022/05/09 00:37:45;;;;;;;7.80;2.80;;;;;;;13.12;43.47;101154.61;124915;1099;104160;-77
2022/05/09 00:40:19;;;;;;;10.60;3.17;;;;;;;13.08;43.44;101148.31;124717;1099;102286;-76
2022/05/09 00:42:51;;;;;;;12.60;3.17;;;;;;;13.06;43.57;101146.48;124770;1099;104232;-77
2022/05/09 00:45:26;;;;;;;9.70;3.20;;;;;;;13.03;43.61;101151.64;124808;1099;104319;-77
2022/05/09 00:48:04;;;;;;;6.53;2.80;;;;;;;13.03;43.77;101149.02;124423;1099;104583;-76
2022/05/09 00:50:37;;;;;;;11.90;3.20;;;;;;;13.01;44.12;101145.40;124788;1099;104177;-77
2022/05/09 00:53:11;;;;;;;7.60;2.80;;;;;;;12.98;43.77;101142.66;124741;1099;104172;-77
2022/05/09 00:55:44;;;;;;;;;;;;;;;12.94;43.51;101149.56;124835;1099;104195;-77
2022/05/09 00:58:22;;;;;;;8.17;2.77;;;;;;;12.94;43.70;101147.81;124798;1099;104175;-76
2022/05/09 01:00:56;;;;;;;7.30;2.50;;;;;;;12.92;43.96;101149.50;124787;1099;102360;-77
2022/05/09 01:03:36;;;;;;;8.40;3.10;;;;;;;12.88;44.18;101147.59;124812;1099;104169;-76
2022/05/09 01:06:08;;;;;;;7.50;3.37;;;;;;;12.76;44.66;101142.78;124822;1099;102399;-77
2022/05/09 01:08:39;;;;;;;11.97;4.60;;;;;;;12.74;44.56;101156.72;124800;1099;104159;-76
2022/05/09 01:11:17;;;;;;;11.53;4.90;;;;;;;12.67;44.85;101147.70;124803;1099;104210;-77
2022/05/09 01:13:54;;;;;;;14.50;5.53;;;;;;;12.63;45.29;101150.17;124838;1099;102235;-76
2022/05/09 01:16:27;;;;;;;11.50;4.80;;;;;;;12.63;45.20;101145.78;124756;1099;104162;-76
2022/05/09 01:19:04;;;;;;;10.97;4.77;;;;;;;12.59;45.35;101147.42;124765;1099;104159;-76
2022/05/09 01:21:37;;;;;;;12.90;5.13;;;;;;;12.57;45.33;101143.84;124763;1099;104163;-76
2022/05/09 01:24:17;;;;;;;12.10;4.83;;;;;;;12.55;45.51;101152.51;124863;1099;104258;-76
2022/05/09 01:26:51;;;;;;;14.00;5.23;;;;;;;12.49;45.75;101144.38;124713;1099;104236;-77
2022/05/09 01:29:32;;;;;;;16.32;5.67;;;;;;;12.46;46.23;101149.52;124715;1099;102250;-76
2022/05/09 01:32:05;;;;;;;13.07;4.60;;;;;;;12.44;45.82;101148.58;124831;1099;111699;-77
2022/05/09 01:34:38;;;;;;;14.73;4.92;;;;;;;12.38;45.96;101143.97;124866;1098;104214;-77
2022/05/09 01:37:14;;;;;;;16.65;5.65;;;;;;;12.33;46.37;101141.16;124957;1099;102146;-77
2022/05/09 01:39:48;;;;;;;16.03;4.93;;;;;;;12.30;46.28;101141.03;124761;1099;102826;-76
2022/05/09 01:42:21;;;;;;;15.20;4.90;;;;;;;12.30;46.54;101134.88;124834;1099;101907;-76
2022/05/09 01:44:54;;;;;;;13.20;4.80;;;;;;;12.28;46.41;101134.83;124879;1099;104207;-76
2022/05/09 01:50:13;;;;;;;10.43;4.47;;;;;;;12.20;46.48;101133.60;124830;1099;104410;-76
2022/05/09 01:52:46;;;;;;;14.57;4.60;;;;;;;12.20;46.48;101141.50;124827;1097;106988;-77
2022/05/09 01:55:21;;;;;;;11.37;4.60;;;;;;;12.19;46.86;101140.61;124867;1097;102225;-77
2022/05/09 01:57:53;;;;;;;13.93;5.10;;;;;;;12.18;46.71;101138.80;124782;1099;104236;-77
2022/05/09 02:00:25;;;;;;;14.30;4.43;;;;;;;12.16;46.82;101137.86;124842;1096;104641;-77
2022/05/09 02:02:58;;;;;;;17.53;4.83;;;;;;;12.10;47.03;101134.98;124814;1098;117791;-77
2022/05/09 02:05:30;;;;;;;15.13;4.33;;;;;;;12.07;47.08;101131.34;124718;1099;104207;-77
2022/05/09 02:08:03;;;;;;;12.97;4.60;;;;;;;12.02;47.39;101129.42;124935;1099;104195;-78
2022/05/09 02:10:35;;;;;;;17.13;4.93;;;;;;;12.02;47.14;101136.42;124783;1099;104268;-77
2022/05/09 02:13:07;;;;;;;12.17;4.07;;;;;;;12.02;47.06;101136.42;124799;1098;104256;-78
2022/05/09 02:15:39;;;;;;;11.30;4.90;;;;;;;12.05;47.36;101133.92;124729;1099;102684;-78
2022/05/09 02:18:12;;;;;;;11.85;4.20;;;;;;;12.08;47.66;101139.30;124826;1096;102758;-77
2022/05/09 02:20:43;;;;;;;13.10;4.60;;;;;;;12.09;47.65;101130.58;124835;1096;102973;-77
2022/05/09 02:23:17;;;;;;;13.87;4.70;;;;;;;12.06;47.53;101135.72;124765;1099;112708;-77
2022/05/09 02:25:50;;;;;;;12.77;5.20;;;;;;;12.04;47.62;101137.38;124770;1099;104227;-77
2022/05/09 02:28:21;;;;;;;;;;;;;;;11.99;47.53;101133.67;124846;1099;102880;-77
2022/05/09 02:30:52;;;;;;;12.47;4.50;;;;;;;11.96;47.68;101128.28;124729;1098;104284;-78
2022/05/09 02:33:25;;;;;;;12.90;4.57;;;;;;;11.93;47.93;101129.05;124832;1097;102806;-77
2022/05/09 02:35:57;;;;;;;14.17;4.83;;;;;;;11.87;47.82;101126.14;124839;1096;102047;-77
2022/05/09 02:38:30;;;;;;;13.97;5.00;;;;;;;11.83;48.08;101133.02;124733;1099;104190;-77
2022/05/09 02:41:02;;;;;;;15.90;4.83;;;;;;;11.83;47.86;101133.02;124833;1096;104238;-77
2022/05/09 02:43:34;;;;;;;16.40;4.80;;;;;;;11.82;48.14;101135.58;124707;1099;104169;-77
2022/05/09 02:46:06;;;;;;;15.50;5.03;;;;;;;11.81;48.60;101137.33;124792;1099;104784;-77
2022/05/09 02:48:39;;;;;;;11.27;4.20;;;;;;;11.81;48.56;101139.95;124713;1099;104289;-77
2022/05/09 02:51:11;;;;;;;14.90;4.70;;;;;;;11.79;48.42;101138.97;124798;1099;104265;-77
2022/05/09 02:53:45;;;;;;;10.67;4.40;;;;;;;11.79;48.56;101136.34;124699;1099;104233;-78
2022/05/09 02:56:16;;;;;;;17.48;5.30;;;;;;;11.76;48.51;101136.22;124836;1096;102211;-77
2022/05/09 02:58:47;;;;;;;12.93;4.80;;;;;;;11.77;48.76;101139.77;124827;1096;104066;-77
2022/05/09 03:01:20;;;;;;;14.03;4.33;;;;;;;11.76;48.71;101130.95;124816;1096;104166;-77
2022/05/09 03:06:42;;;;;;;17.03;4.90;;;;;;;11.73;48.69;101132.58;124804;1099;102215;-77
2022/05/09 03:09:13;;;;;;;14.17;4.60;;;;;;;11.71;49.09;101131.63;124779;1099;102957;-77
2022/05/09 03:11:46;;;;;;;17.77;4.93;;;;;;;11.73;49.09;101138.72;124860;1099;104267;-77
2022/05/09 03:14:18;;;;;;;18.27;5.57;;;;;;;11.77;49.01;101137.14;124751;1099;111437;-77
2022/05/09 03:16:50;;;;;;;15.33;4.43;;;;;;;11.79;49.30;101133.71;124894;1096;102810;-77
2022/05/09 03:19:24;;;;;;;16.33;4.47;;;;;;;11.82;49.47;101131.20;124705;1099;103566;-77
2022/05/09 03:21:56;;;;;;;18.53;4.77;;;;;;;11.86;49.41;101137.52;124756;1096;102819;-77
2022/05/09 03:24:29;;;;;;;15.10;4.53;;;;;;;11.90;49.28;101130.64;124797;1099;104236;-77
2022/05/09 03:27:02;;;;;;;15.60;4.83;;;;;;;11.91;49.20;101135.95;124818;1098;102769;-78
2022/05/09 03:29:35;;;;;;;11.30;4.40;;;;;;;11.95;49.31;101137.00;124878;1099;104298;-77
2022/05/09 03:32:08;;;;;;;12.40;4.83;;;;;;;11.95;49.65;101137.92;124813;1099;104208;-78
2022/05/09 03:34:41;;;;;;;24.70;5.00;;;;;;;11.99;49.61;101137.19;124670;1099;104258;-77
2022/05/09 03:37:13;;;;;;;23.00;5.00;;;;;;;12.02;49.66;101139.05;124721;1096;102314;-78
2022/05/09 03:39:45;;;;;;;18.03;5.03;;;;;;;12.06;49.78;101138.35;124764;1099;104241;-78
2022/05/09 03:42:16;;;;;;;18.40;4.87;;;;;;;12.14;49.65;101138.63;124752;1099;104284;-77
2022/05/09 03:44:48;;;;;;;16.80;5.10;;;;;;;12.20;50.01;101138.87;124840;1099;102874;-78
2022/05/09 03:47:21;;;;;;;13.27;5.13;;;;;;;12.27;49.87;101140.03;124759;1099;104627;-77
2022/05/09 03:49:55;;;;;;;12.67;4.70;;;;;;;12.36;49.88;101143.02;124871;1099;102159;-78
2022/05/09 03:52:27;;;;;;;15.77;4.90;;;;;;;12.43;49.69;101145.03;124727;1099;102818;-77
2022/05/09 03:54:58;;;;;;;12.67;5.00;;;;;;;12.48;49.91;101154.02;124768;1099;104249;-78
2022/05/09 03:57:31;;;;;;;17.20;5.40;;;;;;;12.53;50.14;101149.81;124831;1099;101897;-77
2022/05/09 04:00:08;;;;;;;15.40;5.13;;;;;;;12.57;49.93;101153.45;124814;1099;104656;-77
2022/05/09 04:02:48;;;;;;;16.65;5.05;;;;;;;12.58;50.09;101152.63;124732;1099;104230;-77
2022/05/09 04:05:21;;;;;;;16.00;4.87;;;;;;;12.59;50.34;101155.31;124866;1099;111832;-78
2022/05/09 04:07:55;;;;;;;21.03;5.50;;;;;;;12.67;50.05;101154.69;124843;1099;102845;-78
2022/05/09 04:10:28;;;;;;;13.13;5.55;;;;;;;12.72;50.09;101158.41;124845;1099;102347;-78
2022/05/09 04:13:00;;;;;;;15.50;5.67;;;;;;;12.68;49.88;101151.23;124765;1099;103239;-77
2022/05/09 04:18:21;;;;;;;17.03;5.63;;;;;;;12.64;50.22;101155.48;124769;1099;104175;-77
2022/05/09 04:20:53;;;;;;;21.13;6.03;;;;;;;12.65;50.31;101161.64;124880;1099;102880;-78
2022/05/09 04:23:24;;;;;;;15.47;5.93;;;;;;;12.69;50.13;101160.94;124747;1099;104235;-78
2022/05/09 04:25:57;;;;;;;13.57;6.20;;;;;;;12.72;50.46;101158.41;124833;1099;104229;-78
2022/05/09 04:28:29;;;;;;;18.97;6.53;;;;;;;12.79;50.28;101159.53;124850;1098;104315;-78
2022/05/09 04:31:01;;;;;;;17.73;6.90;;;;;;;12.81;50.47;101150.86;124752;1099;104503;-77
2022/05/09 04:33:33;;;;;;;18.70;6.75;;;;;;;12.80;50.35;101156.95;124814;1098;101813;-78
2022/05/09 04:36:06;;;;;;;17.93;7.17;;;;;;;12.82;50.63;101152.63;124798;1099;104169;-78
2022/05/09 04:38:39;;;;;;;;;;;;;;;12.89;50.46;101151.14;124821;1099;104073;-78
2022/05/09 04:41:13;;;;;;;18.10;6.80;;;;;;;12.99;50.56;101147.98;124780;1099;104216;-77
2022/05/09 04:43:46;;;;;;;20.23;7.67;;;;;;;13.07;50.69;101145.63;124840;1099;104169;-78
2022/05/09 04:46:18;;;;;;;16.87;6.83;;;;;;;13.17;50.60;101138.97;124829;1099;104175;-77
2022/05/09 04:48:51;;;;;;;19.37;7.23;;;;;;;13.28;49.96;101142.86;124724;1099;104272;-77
2022/05/09 04:51:23;;;;;;;23.75;8.15;;;;;;;13.35;50.91;101150.16;124748;1099;104252;-77
2022/05/09 04:53:54;;;;;;;22.13;7.93;;;;;;;13.41;50.57;101149.48;124814;1099;104176;-77
2022/05/09 04:56:26;;;;;;;19.70;7.63;;;;;;;13.47;50.56;101144.42;124810;1098;111194;-77
2022/05/09 04:58:57;;;;;;;16.87;7.57;;;;;;;13.53;50.55;101138.47;124873;1098;102675;-78
2022/05/09 05:01:29;;;;;;;19.23;7.60;;;;;;;13.60;50.40;101141.38;124796;1099;104172;-78
2022/05/09 05:04:00;;;;;;;18.43;7.13;;;;;;;13.71;50.22;101131.15;124796;1099;102162;-78
2022/05/09 05:06:33;;;;;;;19.93;7.33;;;;;;;13.80;50.19;101133.20;124710;1099;104245;-77
2022/05/09 05:09:05;;;;;;;19.33;7.73;;;;;;;13.89;50.28;101137.89;124693;1099;104243;-78
2022/05/09 05:11:37;;;;;;;19.50;7.30;;;;;;;13.97;50.81;101142.55;124811;1099;104232;-78
2022/05/09 05:14:08;;;;;;;25.93;7.77;;;;;;;14.08;50.76;101140.25;124775;1099;104261;-78
2022/05/09 05:19:31;;;;;;;19.07;7.57;;;;;;;14.25;50.98;101143.42;124830;1099;104269;-77
2022/05/09 05:22:02;;;;;;;;;;;;;;;14.27;50.58;101144.36;124773;1099;104229;-77
2022/05/09 05:24:38;;;;;;;17.67;7.20;;;;;;;14.33;50.97;101154.22;124726;1098;104311;-77
2022/05/09 05:27:09;;;;;;;20.60;7.70;;;;;;;14.36;50.29;101143.75;124799;1099;119664;-77
2022/05/09 05:29:41;;;;;;;23.63;7.77;;;;;;;14.43;50.75;101148.39;124739;1099;102212;-77
2022/05/09 05:32:21;;;;;;;21.53;7.20;;;;;;;14.47;50.16;101152.89;124812;1099;104274;-77
2022/05/09 05:34:54;;;;;;;21.00;7.07;;;;;;;14.54;50.63;101159.27;124825;1099;104188;-78
2022/05/09 05:37:25;;;;;;;15.57;6.77;;;;;;;14.63;50.99;101156.02;124710;1099;102775;-78
2022/05/09 05:39:58;;;;;;;15.90;6.30;;;;;;;14.66;50.27;101151.75;124824;1099;102816;-78
2022/05/09 05:42:31;;;;;;;12.57;5.67;;;;;;;14.73;50.23;101156.34;124741;1099;104267;-77
2022/05/09 05:45:03;;;;;;;15.13;5.83;;;;;;;14.78;50.20;101161.76;124763;1099;104217;-78
2022/05/09 05:47:35;;;;;;;11.40;5.07;;;;;;;14.82;51.30;101158.37;124727;1099;104175;-77
2022/05/09 05:50:11;;;;;;;14.73;5.47;;;;;;;14.86;50.45;101161.98;124730;1099;104156;-77
2022/05/09 05:52:42;;;;;;;14.40;5.40;;;;;;;14.87;50.46;101155.86;125774;1098;102983;-77
2022/05/09 05:55:14;;;;;;;17.80;5.53;;;;;;;14.88;51.05;101154.98;124851;1099;104246;-78
2022/05/09 05:57:46;;;;;;;18.20;5.50;;;;;;;14.89;50.55;101159.43;124720;1099;104280;-77
2022/05/09 06:00:24;;;;;;;15.80;5.67;;;;;;;14.90;51.62;101161.23;124683;1099;104165;-77
2022/05/09 06:02:56;;;;;;;13.87;4.97;;;;;;;14.94;51.55;101163.09;124778;1099;104214;-77
2022/05/09 06:05:28;;;;;;;14.63;5.23;;;;;;;14.97;50.66;101163.17;124685;1099;104198;-77
2022/05/09 06:07:59;;;;;;;12.90;4.90;;;;;;;15.07;50.83;101162.59;124915;1099;102820;-78
2022/05/09 06:10:31;;;;;;;11.43;5.03;;;;;;;15.15;51.31;101157.52;124854;1099;103241;-78
2022/05/09 06:13:06;;;;;;;15.83;5.73;;;;;;;15.25;50.68;101161.30;124821;1099;104232;-78
2022/05/09 06:15:37;;;;;;;16.67;6.23;;;;;;;15.37;50.68;101158.98;124852;1099;104235;-77
2022/05/09 06:18:12;;;;;;;16.07;6.73;;;;;;;15.49;50.95;101158.43;124713;1099;102775;-77
2022/05/09 06:20:46;;;;;;;16.57;6.30;;;;;;;15.58;50.56;101160.39;124742;1099;104182;-77
2022/05/09 06:23:19;;;;;;;16.70;6.47;;;;;;;15.69;50.74;101155.37;124809;1099;104269;-77
2022/05/09 06:25:50;;;;;;;16.93;6.67;;;;;;;15.77;51.09;101152.12;124793;1097;104290;-77
2022/05/09 06:28:23;;;;;;;15.30;6.23;;;;;;;15.87;50.41;101144.41;124801;1099;104169;-77
2022/05/09 06:30:54;;;;;;;19.03;7.03;;;;;;;15.94;50.58;101143.67;124802;1096;104166;-78
2022/05/09 06:33:27;;;;;;;17.23;5.90;;;;;;;16.05;50.57;101149.23;124819;1099;102784;-77
2022/05/09 06:35:59;;;;;;;19.43;6.37;;;;;;;16.17;51.17;101146.88;124743;1099;104201;-77
2022/05/09 06:38:31;;;;;;;21.55;6.72;;;;;;;16.32;50.23;101148.98;124799;1099;101899;-78
2022/05/09 06:41:04;;;;;;;21.13;6.37;;;;;;;16.47;50.93;101146.68;124842;1099;104160;-78
2022/05/09 06:43:37;;;;;;;16.83;5.43;;;;;;;16.59;50.04;101146.03;124855;1099;104153;-78
2022/05/09 06:46:08;;;;;;;17.05;5.55;;;;;;;16.71;50.87;101146.30;124736;1099;102255;-77
2022/05/09 06:48:40;;;;;;;14.70;5.20;;;;;;;16.86;50.53;101148.41;124755;1099;103009;-77
2022/05/09 06:51:13;;;;;;;13.17;5.50;;;;;;;17.04;50.31;101141.67;124837;1096;102909;-77
2022/05/09 06:53:46;;;;;;;13.73;5.30;;;;;;;17.22;50.05;101139.38;124823;1097;104367;-77
2022/05/09 06:56:18;;;;;;;14.20;4.65;;;;;;;17.43;50.14;101143.28;124874;1099;102480;-78
2022/05/09 06:58:51;;;;;;;14.37;4.47;;;;;;;17.66;49.65;101141.03;124811;1096;102226;-77
2022/05/09 07:01:23;;;;;;;13.50;4.62;;;;;;;17.88;49.27;101133.42;124763;1099;102905;-77
2022/05/09 07:03:54;;;;;;;10.20;4.30;;;;;;;18.07;49.36;101132.85;124818;1099;104261;-77
2022/05/09 07:06:25;;;;;;;9.43;4.17;;;;;;;18.30;49.01;101132.31;124705;1099;104229;-77
2022/05/09 07:08:57;;;;;;;10.83;4.10;;;;;;;18.50;48.90;101136.13;124736;1099;102772;-78
2022/05/09 07:11:29;;;;;;;11.50;3.83;;;;;;;18.72;48.61;101130.20;124863;1096;104203;-77
2022/05/09 07:14:01;;;;;;;14.13;5.00;;;;;;;18.94;48.72;101126.06;124781;1096;104317;-75
2022/05/09 07:16:33;;;;;;;16.37;4.63;;;;;;;19.13;48.40;101119.16;124814;1099;104256;-75
2022/05/09 07:19:06;;;;;;;17.10;5.47;;;;;;;19.29;48.09;101126.44;124811;1099;104238;-75
2022/05/09 07:21:38;;;;;;;19.20;4.97;;;;;;;19.49;47.27;101125.71;124759;1099;104162;-75
2022/05/09 07:24:10;;;;;;;14.27;4.97;;;;;;;19.66;47.15;101124.08;124792;1099;102928;-76
2022/05/09 07:26:41;;;;;;;12.00;4.40;;;;;;;19.80;47.21;101123.34;124873;1099;102762;-75
2022/05/09 07:29:13;;;;;;;12.77;4.50;;;;;;;19.96;46.55;101124.34;124783;1099;104230;-75
2022/05/09 07:31:45;;;;;;;10.40;3.97;;;;;;;20.11;45.96;101124.45;124808;1099;102819;-76
2022/05/09 07:34:18;;;;;;;16.33;4.57;;;;;;;20.36;45.18;101121.93;124874;1099;101928;-75
2022/05/09 07:36:50;;;;;;;8.53;3.80;;;;;;;20.54;45.05;101122.02;124815;1096;104204;-75
2022/05/09 07:39:23;;;;;;;11.57;3.80;;;;;;;20.74;45.02;101119.48;124823;1099;105452;-76
2022/05/09 07:41:55;;;;;;;8.83;3.60;;;;;;;20.96;43.63;101119.55;124802;1099;104322;-74
2022/05/09 07:44:26;;;;;;;8.77;3.20;;;;;;;21.09;43.23;101112.45;124821;1099;102867;-75
2022/05/09 07:47:00;;;;;;;9.50;3.03;;;;;;;21.26;41.56;101121.37;124913;1097;104181;-75
2022/05/09 07:49:33;;;;;;;5.10;2.50;;;;;;;21.43;42.45;101110.72;124710;1098;104223;-75
2022/05/09 07:52:08;;;;;;;5.33;2.75;;;;;;;21.60;41.39;101118.77;124893;1096;104329;-75
2022/05/09 07:54:39;;;;;;;7.20;2.80;;;;;;;21.76;40.85;101119.66;124781;1097;104341;-75
2022/05/09 07:57:11;;;;;;;8.97;3.03;;;;;;;21.87;40.36;101112.51;124812;1098;104246;-75
2022/05/09 07:59:46;;;;;;;12.87;3.00;;;;;;;22.06;38.97;101112.48;124874;1099;104270;-75
2022/05/09 08:02:18;;;;;;;7.77;2.73;;;;;;;22.32;37.21;101109.78;124743;1099;104467;-75
2022/05/09 08:04:50;;;;;;;7.07;2.93;;;;;;;22.56;37.11;101106.14;124799;1099;104333;-76
2022/05/09 08:07:22;;;;;;;7.10;2.83;;;;;;;22.71;36.61;101112.31;124768;1099;104232;-75
2022/05/09 08:09:56;;;;;;;7.58;2.45;;;;;;;22.83;35.96;101104.23;124846;1099;104162;-75
2022/05/09 08:12:28;;;;;;;5.35;2.58;;;;;;;22.94;36.39;101107.72;124914;1099;104224;-75
2022/05/09 08:14:59;;;;;;;6.83;2.50;;;;;;;23.07;35.94;101110.33;124812;1099;104371;-76
2022/05/09 08:17:32;;;;;;;6.20;2.47;;;;;;;23.25;35.47;101103.98;124794;1099;104335;-76
2022/05/09 08:20:03;;;;;;;4.50;2.43;;;;;;;23.33;35.08;101108.39;124864;1098;104169;-76
2022/05/09 08:22:34;;;;;;;11.00;2.63;;;;;;;23.42;34.19;101103.86;124840;1097;104188;-76
2022/05/09 08:25:08;;;;;;;9.53;3.00;;;;;;;23.47;33.85;101104.73;124865;1099;103056;-75
2022/05/09 08:27:42;;;;;;;5.57;2.73;;;;;;;23.47;32.88;101104.73;124825;1099;104201;-75
2022/05/09 08:30:14;;;;;;;9.00;2.43;;;;;;;23.43;33.25;101109.20;124812;1099;104102;-75
2022/05/09 08:32:47;;;;;;;11.87;2.57;;;;;;;23.54;33.24;101098.41;124924;1099;104261;-76
2022/05/09 08:35:19;;;;;;;5.30;2.85;;;;;;;23.67;33.21;101105.45;124874;1099;104214;-75
2022/05/09 08:37:51;;;;;;;4.70;2.50;;;;;;;23.67;32.40;101101.89;124823;1099;102371;-75
2022/05/09 08:40:33;;;;;;;9.63;2.87;;;;;;;23.72;32.01;101101.81;124801;1099;104198;-75
2022/05/09 08:43:14;;;;;;;7.60;2.70;;;;;;;23.81;32.43;101104.41;124928;1099;104187;-76
2022/05/09 08:45:53;;;;;;;6.07;2.70;;;;;;;23.90;31.64;101106.16;124878;1099;102781;-75
2022/05/09 08:48:42;;;;;;;6.23;2.33;;;;;;;24.02;30.95;101098.88;124882;1099;104146;-76
2022/05/09 08:51:20;;;;;;;5.67;2.23;;;;;;;24.06;30.35;101105.11;124824;1096;104160;-76
2022/05/09 08:54:00;;;;;;;3.50;2.00;;;;;;;24.01;30.54;101106.93;124827;1095;104073;-75
2022/05/09 08:56:32;;;;;;;5.70;2.40;;;;;;;24.11;29.75;101102.38;124839;1096;101815;-75
2022/05/09 08:59:05;;;;;;;6.07;2.03;;;;;;;24.11;29.82;101094.34;124899;1099;102838;-76
2022/05/09 09:01:42;;;;;;;5.80;2.20;;;;;;;24.01;29.24;101096.21;124859;1099;104288;-75
2022/05/09 09:04:23;;;;;;;7.20;2.20;;;;;;;23.99;29.31;101098.91;124917;1099;102800;-76
2022/05/09 09:07:13;;;;;;;6.27;2.90;;;;;;;24.05;28.58;101093.48;125080;1099;104258;-76
2022/05/09 09:10:03;;;;;;;6.27;2.90;;;;;;;24.07;27.64;101096.14;125169;1096;104252;-76
2022/05/09 09:12:47;;;;;;;5.60;2.53;;;;;;;24.14;28.33;101092.50;124898;1096;104644;-75
2022/05/09 09:15:37;;;;;;;9.43;2.70;;;;;;;24.14;27.53;101099.67;124841;1099;104280;-75
2022/05/09 09:18:39;;;;;;;4.97;2.40;;;;;;;24.08;26.77;101089.89;125141;1099;104246;-75
2022/05/09 09:21:20;;;;;;;4.63;2.33;;;;;;;24.13;26.34;101098.77;125046;1099;102205;-76
2022/05/09 09:24:03;;;;;;;8.67;2.50;;;;;;;24.11;26.25;101091.66;125063;1099;104172;-76
2022/05/09 09:26:42;;;;;;;8.17;2.63;;;;;;;24.13;26.03;101084.48;124936;1099;104188;-75
2022/05/09 09:29:18;;;;;;;5.13;2.57;;;;;;;24.23;26.74;101086.13;124993;1099;104184;-75
2022/05/09 09:31:56;;;;;;;7.10;2.83;;;;;;;24.30;27.12;101085.16;124932;1099;104316;-75
2022/05/09 09:34:34;;;;;;;5.97;2.90;;;;;;;24.41;27.14;101091.28;124916;1098;104413;-75
2022/05/09 09:37:13;;;;;;;7.87;2.67;;;;;;;24.43;27.07;101090.38;124927;1096;104176;-76
2022/05/09 09:39:45;;;;;;;8.33;2.80;;;;;;;24.40;26.71;101085.94;124943;1096;102403;-75
2022/05/09 09:42:18;;;;;;;7.67;3.00;;;;;;;24.47;26.54;101086.77;124959;1099;102906;-75
2022/05/09 09:44:53;;;;;;;8.20;3.07;;;;;;;24.50;26.34;101092.09;125016;1099;104315;-75
2022/05/09 09:47:29;;;;;;;6.57;2.60;;;;;;;24.44;27.34;101085.00;124714;1099;104312;-75
2022/05/09 09:50:20;;;;;;;5.73;2.70;;;;;;;24.44;27.20;101078.76;124832;1099;104230;-76
2022/05/09 09:52:53;;;;;;;10.77;3.00;;;;;;;24.50;27.13;101084.05;124942;1099;111327;-75
2022/05/09 09:55:31;;;;;;;8.27;2.87;;;;;;;24.45;26.86;101080.52;125294;1099;104198;-75
2022/05/09 09:58:23;;;;;;;7.50;2.80;;;;;;;24.40;26.63;101084.16;124881;1099;104163;-76
2022/05/09 10:01:05;;;;;;;8.27;3.27;;;;;;;24.39;26.60;101087.73;124988;1096;102422;-76
2022/05/09 10:03:39;;;;;;;8.13;3.07;;;;;;;24.47;27.01;101076.91;125021;1099;104179;-76
2022/05/09 10:06:22;;;;;;;5.73;2.87;;;;;;;24.54;26.70;101085.77;124952;1099;102265;-75
2022/05/09 10:09:02;;;;;;;8.07;3.10;;;;;;;24.59;26.66;101075.91;124956;1099;104159;-76
2022/05/09 10:11:35;;;;;;;9.20;2.60;;;;;;;24.61;26.74;101071.41;124830;1099;104179;-76
2022/05/09 10:14:09;;;;;;;9.00;3.20;;;;;;;24.67;26.97;101065.08;124852;1099;102428;-75
2022/05/09 10:16:48;;;;;;;10.85;2.80;;;;;;;24.59;26.82;101073.23;125079;1096;102292;-75
2022/05/09 10:19:32;;;;;;;8.60;3.07;;;;;;;24.56;26.67;101057.14;124871;1097;104326;-75
2022/05/09 10:25:09;;;;;;;8.50;3.33;;;;;;;24.50;26.42;101052.73;124919;1099;104226;-76
2022/05/09 10:27:41;;;;;;;6.93;3.10;;;;;;;24.56;26.72;101046.41;124897;1099;102114;-76
2022/05/09 10:30:34;;;;;;;12.77;3.63;;;;;;;24.57;26.15;101048.20;125202;1097;104071;-75
2022/05/09 10:33:12;;;;;;;9.47;3.53;;;;;;;24.49;26.27;101050.07;125381;1099;104178;-76
2022/05/09 10:35:49;;;;;;;5.20;2.90;;;;;;;24.48;26.61;101037.55;124840;1099;104268;-76
2022/05/09 10:38:32;;;;;;;8.33;3.17;;;;;;;24.57;26.46;101046.42;124962;1099;104179;-76
2022/05/09 10:41:13;;;;;;;7.57;3.60;;;;;;;24.58;26.26;101041.94;124938;1099;102679;-76
2022/05/09 10:43:51;;;;;;;10.23;3.30;;;;;;;24.63;26.62;101036.51;124983;1099;102792;-75
2022/05/09 10:46:41;;;;;;;6.37;3.10;;;;;;;24.77;26.65;101031.82;125127;1099;104230;-75
2022/05/09 10:49:20;;;;;;;10.27;2.90;;;;;;;24.87;26.15;101032.56;125885;1098;104241;-76
2022/05/09 10:52:00;;;;;;;7.90;3.10;;;;;;;24.87;26.45;101029.87;124794;1099;102775;-75
2022/05/09 10:54:46;;;;;;;7.10;3.30;;;;;;;24.96;26.38;101021.69;124853;1099;102454;-76
2022/05/09 10:57:26;;;;;;;14.33;3.47;;;;;;;25.12;25.99;101019.67;124934;1099;104192;-76
2022/05/09 11:00:06;;;;;;;11.20;3.23;;;;;;;25.35;26.08;101016.59;124728;1099;104213;-75
2022/05/09 11:02:43;;;;;;;7.60;3.30;;;;;;;25.59;26.04;101019.79;124887;1099;104325;-75
2022/05/09 11:05:14;;;;;;;7.23;3.70;;;;;;;25.65;25.71;101014.30;124746;1099;104229;-76
2022/05/09 11:08:00;;;;;;;7.43;3.17;;;;;;;25.78;25.80;101007.76;124842;1099;104332;-76
2022/05/09 11:10:42;;;;;;;8.73;3.57;;;;;;;26.03;25.65;101007.31;124998;1096;104185;-76
2022/05/09 11:13:24;;;;;;;5.57;3.13;;;;;;;26.26;25.84;101004.14;125062;1099;104225;-76
2022/05/09 11:16:07;;;;;;;10.20;3.23;;;;;;;26.38;25.79;100997.59;124863;1099;103305;-76
2022/05/09 11:19:05;;;;;;;4.45;3.05;;;;;;;26.39;25.67;101001.19;124294;1099;102946;-76
2022/05/09 11:21:48;;;;;;;6.63;3.20;;;;;;;26.31;25.46;100998.66;124326;1099;104261;-75
2022/05/09 11:24:35;;;;;;;7.23;3.00;;;;;;;26.09;25.50;100996.42;124344;1099;104355;-76
2022/05/09 11:27:23;;;;;;;10.63;3.27;;;;;;;25.94;25.32;101000.27;125149;1099;102162;-75
2022/05/09 11:30:04;;;;;;;10.93;3.40;;;;;;;25.80;26.21;101002.35;125132;1099;103569;-76
2022/05/09 11:32:42;;;;;;;8.13;3.80;;;;;;;25.67;26.07;101009.77;124422;1099;104232;-77
2022/05/09 11:38:38;;;;;;;9.97;3.57;;;;;;;25.45;26.54;101002.10;124434;1101;104328;-77
2022/05/09 11:41:25;;;;;;;8.13;3.67;;;;;;;25.35;26.70;101000.48;124381;1102;102938;-77
2022/05/09 11:44:10;;;;;;;9.83;3.50;;;;;;;25.29;26.93;101000.59;124280;1102;104172;-77
2022/05/09 11:46:58;;;;;;;7.83;3.60;;;;;;;25.33;26.99;100998.76;124253;1102;104231;-77
2022/05/09 11:49:50;;;;;;;7.50;2.97;;;;;;;25.22;26.87;100998.91;124231;1101;107496;-76
2022/05/09 11:52:28;;;;;;;9.03;3.63;;;;;;;25.12;26.99;100993.69;124294;1102;101845;-76
2022/05/09 11:55:06;;;;;;;7.93;3.30;;;;;;;24.99;27.15;100992.11;124100;1105;104316;-76
2022/05/09 11:57:43;;;;;;;5.07;3.10;;;;;;;24.84;27.17;100986.98;124318;1105;104354;-77